sensor_id;sensor_type;location;lat;lon;timestamp;temperature;humidity
39881;DHT22;25554;44.954;10.068;2023-07-09T00:01:24;23.00;99.90
39881;DHT22;25554;44.954;10.068;2023-07-09T00:03:50;23.00;99.90
39881;DHT22;25554;44.954;10.068;2023-07-09T00:06:23;23.10;99.90
39881;DHT22;25554;44.954;10.068;2023-07-09T00:08:52;23.20;99.90
39881;DHT22;25554;44.954;10.068;2023-07-09T00:11:18;23.20;99.90
39881;DHT22;25554;44.954;10.068;2023-07-09T00:13:45;23.20;99.90
39881;DHT22;25554;44.954;10.068;2023-07-09T00:16:12;23.20;99.90
39881;DHT22;25554;44.954;10.068;2023-07-09T00:18:39;23.10;99.90
39881;DHT22;25554;44.954;10.068;2023-07-09T00:21:05;23.20;99.90
39881;DHT22;25554;44.954;10.068;2023-07-09T00:23:34;23.20;99.90
39881;DHT22;25554;44.954;10.068;2023-07-09T00:26:01;23.20;99.90
39881;DHT22;25554;44.954;10.068;2023-07-09T00:28:29;23.20;99.90
39881;DHT22;25554;44.954;10.068;2023-07-09T00:30:55;23.30;99.90
39881;DHT22;25554;44.954;10.068;2023-07-09T00:33:22;23.30;99.90
39881;DHT22;25554;44.954;10.068;2023-07-09T00:35:54;23.30;99.90
39881;DHT22;25554;44.954;10.068;2023-07-09T00:38:22;23.30;99.90
39881;DHT22;25554;44.954;10.068;2023-07-09T00:41:16;23.30;99.90
39881;DHT22;25554;44.954;10.068;2023-07-09T00:43:47;23.30;99.90
39881;DHT22;25554;44.954;10.068;2023-07-09T00:49:12;23.20;99.90
39881;DHT22;25554;44.954;10.068;2023-07-09T00:51:45;23.10;99.90
39881;DHT22;25554;44.954;10.068;2023-07-09T00:54:24;23.10;99.90
39881;DHT22;25554;44.954;10.068;2023-07-09T00:57:00;23.00;99.90
39881;DHT22;25554;44.954;10.068;2023-07-09T00:59:30;23.00;99.90
39881;DHT22;25554;44.954;10.068;2023-07-09T01:01:58;23.00;99.90
39881;DHT22;25554;44.954;10.068;2023-07-09T01:04:29;23.00;99.90
39881;DHT22;25554;44.954;10.068;2023-07-09T01:06:56;22.90;99.90
39881;DHT22;25554;44.954;10.068;2023-07-09T01:09:24;22.80;99.90
39881;DHT22;25554;44.954;10.068;2023-07-09T01:11:51;22.80;99.90
39881;DHT22;25554;44.954;10.068;2023-07-09T01:14:19;22.70;99.90
39881;DHT22;25554;44.954;10.068;2023-07-09T01:16:53;22.60;99.90
39881;DHT22;25554;44.954;10.068;2023-07-09T01:20:13;22.50;99.90
39881;DHT22;25554;44.954;10.068;2023-07-09T01:22:56;22.40;99.90
39881;DHT22;25554;44.954;10.068;2023-07-09T01:25:29;22.30;99.90
39881;DHT22;25554;44.954;10.068;2023-07-09T01:28:15;22.20;99.90
39881;DHT22;25554;44.954;10.068;2023-07-09T01:31:29;22.20;99.90
39881;DHT22;25554;44.954;10.068;2023-07-09T01:33:55;22.20;99.90
39881;DHT22;25554;44.954;10.068;2023-07-09T01:36:22;22.20;99.90
39881;DHT22;25554;44.954;10.068;2023-07-09T01:38:51;22.10;99.90
39881;DHT22;25554;44.954;10.068;2023-07-09T01:41:17;22.10;99.90
39881;DHT22;25554;44.954;10.068;2023-07-09T01:43:46;22.10;99.90
39881;DHT22;25554;44.954;10.068;2023-07-09T01:46:15;22.20;99.90
39881;DHT22;25554;44.954;10.068;2023-07-09T01:48:42;22.20;99.90
39881;DHT22;25554;44.954;10.068;2023-07-09T01:51:12;22.20;99.90
39881;DHT22;25554;44.954;10.068;2023-07-09T01:53:40;22.10;99.90
39881;DHT22;25554;44.954;10.068;2023-07-09T01:56:08;22.10;99.90
39881;DHT22;25554;44.954;10.068;2023-07-09T01:58:34;22.10;99.90
39881;DHT22;25554;44.954;10.068;2023-07-09T02:01:00;22.10;99.90
39881;DHT22;25554;44.954;10.068;2023-07-09T02:03:27;22.10;99.90
39881;DHT22;25554;44.954;10.068;2023-07-09T02:05:54;22.00;99.90
39881;DHT22;25554;44.954;10.068;2023-07-09T02:08:22;22.10;99.90
39881;DHT22;25554;44.954;10.068;2023-07-09T02:10:49;22.00;99.90
39881;DHT22;25554;44.954;10.068;2023-07-09T02:13:16;22.00;99.90
39881;DHT22;25554;44.954;10.068;2023-07-09T02:15:44;21.90;99.90
39881;DHT22;25554;44.954;10.068;2023-07-09T02:18:15;21.70;99.90
39881;DHT22;25554;44.954;10.068;2023-07-09T02:20:41;21.60;99.90
39881;DHT22;25554;44.954;10.068;2023-07-09T02:23:08;21.50;99.90
39881;DHT22;25554;44.954;10.068;2023-07-09T02:25:34;21.40;99.90
39881;DHT22;25554;44.954;10.068;2023-07-09T02:28:00;21.40;99.90
39881;DHT22;25554;44.954;10.068;2023-07-09T02:30:27;21.40;99.90
39881;DHT22;25554;44.954;10.068;2023-07-09T02:32:53;21.50;99.90
39881;DHT22;25554;44.954;10.068;2023-07-09T02:35:21;21.50;99.90
39881;DHT22;25554;44.954;10.068;2023-07-09T02:37:48;21.60;99.90
39881;DHT22;25554;44.954;10.068;2023-07-09T02:40:15;21.70;99.90
39881;DHT22;25554;44.954;10.068;2023-07-09T02:42:42;21.70;99.90
39881;DHT22;25554;44.954;10.068;2023-07-09T02:45:09;21.80;99.90
39881;DHT22;25554;44.954;10.068;2023-07-09T02:47:37;21.80;99.90
39881;DHT22;25554;44.954;10.068;2023-07-09T02:50:04;21.70;99.90
39881;DHT22;25554;44.954;10.068;2023-07-09T02:52:30;21.70;99.90
39881;DHT22;25554;44.954;10.068;2023-07-09T02:54:56;21.70;99.90
39881;DHT22;25554;44.954;10.068;2023-07-09T02:57:23;21.70;99.90
39881;DHT22;25554;44.954;10.068;2023-07-09T02:59:49;21.70;99.90
39881;DHT22;25554;44.954;10.068;2023-07-09T03:02:15;21.70;99.90
39881;DHT22;25554;44.954;10.068;2023-07-09T03:04:41;21.70;99.90
39881;DHT22;25554;44.954;10.068;2023-07-09T03:07:08;21.60;99.90
39881;DHT22;25554;44.954;10.068;2023-07-09T03:09:34;21.60;99.90
39881;DHT22;25554;44.954;10.068;2023-07-09T03:12:00;21.70;99.90
39881;DHT22;25554;44.954;10.068;2023-07-09T03:14:27;21.60;99.90
39881;DHT22;25554;44.954;10.068;2023-07-09T03:16:53;21.60;99.90
39881;DHT22;25554;44.954;10.068;2023-07-09T03:19:19;21.50;99.90
39881;DHT22;25554;44.954;10.068;2023-07-09T03:21:46;21.60;99.90
39881;DHT22;25554;44.954;10.068;2023-07-09T03:24:12;21.50;99.90
39881;DHT22;25554;44.954;10.068;2023-07-09T03:26:41;21.50;99.90
39881;DHT22;25554;44.954;10.068;2023-07-09T03:29:07;21.50;99.90
39881;DHT22;25554;44.954;10.068;2023-07-09T03:31:33;21.40;99.90
39881;DHT22;25554;44.954;10.068;2023-07-09T03:34:01;21.40;99.90
39881;DHT22;25554;44.954;10.068;2023-07-09T03:36:27;21.50;99.90
39881;DHT22;25554;44.954;10.068;2023-07-09T03:38:53;21.50;99.90
39881;DHT22;25554;44.954;10.068;2023-07-09T03:41:19;21.50;99.90
39881;DHT22;25554;44.954;10.068;2023-07-09T03:43:46;21.50;99.90
39881;DHT22;25554;44.954;10.068;2023-07-09T03:46:12;21.60;99.90
39881;DHT22;25554;44.954;10.068;2023-07-09T03:48:38;21.60;99.90
39881;DHT22;25554;44.954;10.068;2023-07-09T03:51:05;21.60;99.90
39881;DHT22;25554;44.954;10.068;2023-07-09T03:53:31;21.50;99.90
39881;DHT22;25554;44.954;10.068;2023-07-09T03:55:57;21.50;99.90
39881;DHT22;25554;44.954;10.068;2023-07-09T03:58:26;21.50;99.90
39881;DHT22;25554;44.954;10.068;2023-07-09T04:00:53;21.50;99.90
39881;DHT22;25554;44.954;10.068;2023-07-09T04:03:21;21.40;99.90
39881;DHT22;25554;44.954;10.068;2023-07-09T04:05:53;21.40;99.90
39881;DHT22;25554;44.954;10.068;2023-07-09T04:08:22;21.40;99.90
39881;DHT22;25554;44.954;10.068;2023-07-09T04:10:48;21.50;99.90
39881;DHT22;25554;44.954;10.068;2023-07-09T04:13:17;21.50;99.90
39881;DHT22;25554;44.954;10.068;2023-07-09T04:15:47;21.60;99.90
39881;DHT22;25554;44.954;10.068;2023-07-09T04:18:15;21.50;99.90
39881;DHT22;25554;44.954;10.068;2023-07-09T04:20:41;21.60;99.90
39881;DHT22;25554;44.954;10.068;2023-07-09T04:23:17;21.60;99.90
39881;DHT22;25554;44.954;10.068;2023-07-09T04:25:47;21.60;99.90
39881;DHT22;25554;44.954;10.068;2023-07-09T04:28:14;21.70;99.90
39881;DHT22;25554;44.954;10.068;2023-07-09T04:30:49;21.70;99.90
39881;DHT22;25554;44.954;10.068;2023-07-09T04:33:20;21.70;99.90
39881;DHT22;25554;44.954;10.068;2023-07-09T04:35:47;21.70;99.90
39881;DHT22;25554;44.954;10.068;2023-07-09T04:38:16;21.80;99.90
39881;DHT22;25554;44.954;10.068;2023-07-09T04:41:01;21.90;99.90
39881;DHT22;25554;44.954;10.068;2023-07-09T04:43:27;21.90;99.90
39881;DHT22;25554;44.954;10.068;2023-07-09T04:45:54;21.90;99.90
39881;DHT22;25554;44.954;10.068;2023-07-09T04:48:20;21.90;99.90
39881;DHT22;25554;44.954;10.068;2023-07-09T04:50:55;21.80;99.90
39881;DHT22;25554;44.954;10.068;2023-07-09T04:53:26;21.80;99.90
39881;DHT22;25554;44.954;10.068;2023-07-09T04:55:52;21.80;99.90
39881;DHT22;25554;44.954;10.068;2023-07-09T04:58:22;21.80;99.90
39881;DHT22;25554;44.954;10.068;2023-07-09T05:00:52;21.80;99.90
39881;DHT22;25554;44.954;10.068;2023-07-09T05:03:23;21.90;99.90
39881;DHT22;25554;44.954;10.068;2023-07-09T05:05:55;22.10;99.90
39881;DHT22;25554;44.954;10.068;2023-07-09T05:08:27;22.20;99.90
39881;DHT22;25554;44.954;10.068;2023-07-09T05:10:55;22.30;99.90
39881;DHT22;25554;44.954;10.068;2023-07-09T05:13:28;22.40;99.90
39881;DHT22;25554;44.954;10.068;2023-07-09T05:15:58;22.70;99.90
39881;DHT22;25554;44.954;10.068;2023-07-09T05:18:59;22.40;99.90
39881;DHT22;25554;44.954;10.068;2023-07-09T05:21:34;22.50;99.90
39881;DHT22;25554;44.954;10.068;2023-07-09T05:27:51;22.60;99.90
39881;DHT22;25554;44.954;10.068;2023-07-09T05:30:20;22.70;99.90
39881;DHT22;25554;44.954;10.068;2023-07-09T05:32:54;22.70;99.90
39881;DHT22;25554;44.954;10.068;2023-07-09T05:35:24;22.80;99.90
39881;DHT22;25554;44.954;10.068;2023-07-09T05:41:53;23.00;99.90
39881;DHT22;25554;44.954;10.068;2023-07-09T05:44:24;23.10;99.90
39881;DHT22;25554;44.954;10.068;2023-07-09T05:46:53;23.20;99.90
39881;DHT22;25554;44.954;10.068;2023-07-09T05:49:26;23.20;99.90
39881;DHT22;25554;44.954;10.068;2023-07-09T05:51:52;23.30;99.90
39881;DHT22;25554;44.954;10.068;2023-07-09T05:54:21;23.40;99.90
39881;DHT22;25554;44.954;10.068;2023-07-09T05:56:58;23.50;99.90
39881;DHT22;25554;44.954;10.068;2023-07-09T06:03:04;23.60;99.90
39881;DHT22;25554;44.954;10.068;2023-07-09T06:05:34;23.80;99.90
39881;DHT22;25554;44.954;10.068;2023-07-09T06:08:04;23.90;99.90
39881;DHT22;25554;44.954;10.068;2023-07-09T06:13:35;24.20;99.90
39881;DHT22;25554;44.954;10.068;2023-07-09T06:16:04;24.20;99.90
39881;DHT22;25554;44.954;10.068;2023-07-09T06:18:34;24.30;99.90
39881;DHT22;25554;44.954;10.068;2023-07-09T06:21:04;24.40;99.90
39881;DHT22;25554;44.954;10.068;2023-07-09T06:23:30;24.40;99.90
39881;DHT22;25554;44.954;10.068;2023-07-09T06:25:56;24.50;99.90
39881;DHT22;25554;44.954;10.068;2023-07-09T06:28:24;24.60;99.90
39881;DHT22;25554;44.954;10.068;2023-07-09T06:30:51;24.70;99.90
39881;DHT22;25554;44.954;10.068;2023-07-09T06:33:19;24.80;99.90
39881;DHT22;25554;44.954;10.068;2023-07-09T06:35:54;24.80;99.90
39881;DHT22;25554;44.954;10.068;2023-07-09T06:38:21;25.00;99.90
39881;DHT22;25554;44.954;10.068;2023-07-09T06:40:48;25.10;99.90
39881;DHT22;25554;44.954;10.068;2023-07-09T06:43:14;25.30;99.90
39881;DHT22;25554;44.954;10.068;2023-07-09T06:45:58;25.40;99.90
39881;DHT22;25554;44.954;10.068;2023-07-09T06:48:27;25.50;99.90
39881;DHT22;25554;44.954;10.068;2023-07-09T06:50:54;25.50;99.90
39881;DHT22;25554;44.954;10.068;2023-07-09T06:53:22;25.50;99.90
39881;DHT22;25554;44.954;10.068;2023-07-09T06:55:48;25.60;99.90
39881;DHT22;25554;44.954;10.068;2023-07-09T06:58:16;25.70;99.90
39881;DHT22;25554;44.954;10.068;2023-07-09T07:00:43;25.90;99.90
39881;DHT22;25554;44.954;10.068;2023-07-09T07:03:10;25.90;99.90
39881;DHT22;25554;44.954;10.068;2023-07-09T07:05:36;26.00;99.90
39881;DHT22;25554;44.954;10.068;2023-07-09T07:08:03;26.10;99.90
39881;DHT22;25554;44.954;10.068;2023-07-09T07:10:29;26.20;99.90
39881;DHT22;25554;44.954;10.068;2023-07-09T07:12:56;26.30;99.90
39881;DHT22;25554;44.954;10.068;2023-07-09T07:15:22;26.40;99.90
39881;DHT22;25554;44.954;10.068;2023-07-09T07:17:49;26.50;99.90
39881;DHT22;25554;44.954;10.068;2023-07-09T07:20:16;26.70;99.90
39881;DHT22;25554;44.954;10.068;2023-07-09T07:22:42;26.80;99.90
39881;DHT22;25554;44.954;10.068;2023-07-09T07:25:09;27.00;99.90
39881;DHT22;25554;44.954;10.068;2023-07-09T07:27:36;27.30;99.90
39881;DHT22;25554;44.954;10.068;2023-07-09T07:30:03;27.50;99.90
39881;DHT22;25554;44.954;10.068;2023-07-09T07:32:30;28.20;99.90
39881;DHT22;25554;44.954;10.068;2023-07-09T07:34:57;29.20;99.90
39881;DHT22;25554;44.954;10.068;2023-07-09T07:37:23;29.90;99.90
39881;DHT22;25554;44.954;10.068;2023-07-09T07:39:49;30.20;99.90
39881;DHT22;25554;44.954;10.068;2023-07-09T07:42:17;30.30;99.90
39881;DHT22;25554;44.954;10.068;2023-07-09T07:44:43;30.40;99.90
39881;DHT22;25554;44.954;10.068;2023-07-09T07:47:10;30.40;99.90
39881;DHT22;25554;44.954;10.068;2023-07-09T07:49:38;30.30;99.90
39881;DHT22;25554;44.954;10.068;2023-07-09T07:52:05;30.20;99.90
39881;DHT22;25554;44.954;10.068;2023-07-09T07:54:31;30.10;99.90
39881;DHT22;25554;44.954;10.068;2023-07-09T07:56:58;30.10;99.90
39881;DHT22;25554;44.954;10.068;2023-07-09T07:59:25;30.10;99.90
39881;DHT22;25554;44.954;10.068;2023-07-09T08:01:51;30.10;99.90
39881;DHT22;25554;44.954;10.068;2023-07-09T08:09:36;30.30;99.90
39881;DHT22;25554;44.954;10.068;2023-07-09T08:12:35;30.20;99.90
39881;DHT22;25554;44.954;10.068;2023-07-09T08:23:18;30.50;99.90
39881;DHT22;25554;44.954;10.068;2023-07-09T08:25:50;30.50;99.90
39881;DHT22;25554;44.954;10.068;2023-07-09T08:28:18;30.50;99.90
39881;DHT22;25554;44.954;10.068;2023-07-09T08:30:44;30.50;99.90
39881;DHT22;25554;44.954;10.068;2023-07-09T08:33:11;30.60;99.90
39881;DHT22;25554;44.954;10.068;2023-07-09T08:35:45;30.50;99.90
39881;DHT22;25554;44.954;10.068;2023-07-09T08:39:56;30.50;99.90
39881;DHT22;25554;44.954;10.068;2023-07-09T08:50:11;30.50;99.90
39881;DHT22;25554;44.954;10.068;2023-07-09T08:52:37;30.50;99.90
39881;DHT22;25554;44.954;10.068;2023-07-09T08:57:47;30.60;99.90
39881;DHT22;25554;44.954;10.068;2023-07-09T09:04:00;30.50;99.90
39881;DHT22;25554;44.954;10.068;2023-07-09T09:06:30;30.40;99.90
39881;DHT22;25554;44.954;10.068;2023-07-09T09:16:03;30.60;99.90
39881;DHT22;25554;44.954;10.068;2023-07-09T09:26:17;30.80;99.90
39881;DHT22;25554;44.954;10.068;2023-07-09T09:32:43;30.90;99.90
39881;DHT22;25554;44.954;10.068;2023-07-09T09:47:03;31.20;99.90
39881;DHT22;25554;44.954;10.068;2023-07-09T09:49:42;31.50;99.90
39881;DHT22;25554;44.954;10.068;2023-07-09T09:52:18;31.70;99.90
39881;DHT22;25554;44.954;10.068;2023-07-09T09:54:52;31.70;99.90
39881;DHT22;25554;44.954;10.068;2023-07-09T09:57:23;31.70;99.90
39881;DHT22;25554;44.954;10.068;2023-07-09T09:59:50;31.80;99.90
39881;DHT22;25554;44.954;10.068;2023-07-09T10:02:22;31.90;99.90
39881;DHT22;25554;44.954;10.068;2023-07-09T10:04:50;32.00;99.90
39881;DHT22;25554;44.954;10.068;2023-07-09T10:07:47;32.20;99.90
39881;DHT22;25554;44.954;10.068;2023-07-09T10:10:21;32.20;99.90
39881;DHT22;25554;44.954;10.068;2023-07-09T10:12:59;32.30;99.90
39881;DHT22;25554;44.954;10.068;2023-07-09T10:15:42;32.50;99.90
39881;DHT22;25554;44.954;10.068;2023-07-09T10:18:43;32.70;99.90
39881;DHT22;25554;44.954;10.068;2023-07-09T10:27:07;33.10;99.90
39881;DHT22;25554;44.954;10.068;2023-07-09T10:29:51;33.20;99.80
39881;DHT22;25554;44.954;10.068;2023-07-09T10:35:00;33.10;99.80
39881;DHT22;25554;44.954;10.068;2023-07-09T10:40:21;33.20;99.40
39881;DHT22;25554;44.954;10.068;2023-07-09T10:42:54;33.20;99.60
39881;DHT22;25554;44.954;10.068;2023-07-09T10:45:47;33.30;99.80
39881;DHT22;25554;44.954;10.068;2023-07-09T10:48:18;33.50;99.50
39881;DHT22;25554;44.954;10.068;2023-07-09T10:50:50;33.50;99.30
39881;DHT22;25554;44.954;10.068;2023-07-09T10:53:40;33.50;99.10
39881;DHT22;25554;44.954;10.068;2023-07-09T10:56:12;33.50;99.10
39881;DHT22;25554;44.954;10.068;2023-07-09T11:02:01;33.60;98.40
39881;DHT22;25554;44.954;10.068;2023-07-09T11:07:04;33.60;98.40
39881;DHT22;25554;44.954;10.068;2023-07-09T11:09:35;33.60;98.60
39881;DHT22;25554;44.954;10.068;2023-07-09T11:14:56;34.00;98.10
39881;DHT22;25554;44.954;10.068;2023-07-09T11:17:26;34.10;98.20
39881;DHT22;25554;44.954;10.068;2023-07-09T11:19:55;34.20;98.00
39881;DHT22;25554;44.954;10.068;2023-07-09T11:22:39;34.10;98.20
39881;DHT22;25554;44.954;10.068;2023-07-09T11:25:10;34.30;97.60
39881;DHT22;25554;44.954;10.068;2023-07-09T11:28:01;34.50;97.10
39881;DHT22;25554;44.954;10.068;2023-07-09T11:30:29;34.70;97.20
39881;DHT22;25554;44.954;10.068;2023-07-09T11:33:02;34.60;96.70
39881;DHT22;25554;44.954;10.068;2023-07-09T11:38:39;34.70;97.10
39881;DHT22;25554;44.954;10.068;2023-07-09T11:46:32;34.90;96.50
39881;DHT22;25554;44.954;10.068;2023-07-09T11:49:00;34.80;96.50
39881;DHT22;25554;44.954;10.068;2023-07-09T11:51:45;34.70;96.40
39881;DHT22;25554;44.954;10.068;2023-07-09T11:54:13;34.90;96.20
39881;DHT22;25554;44.954;10.068;2023-07-09T11:56:39;35.00;96.20
39881;DHT22;25554;44.954;10.068;2023-07-09T11:59:07;34.80;96.10
39881;DHT22;25554;44.954;10.068;2023-07-09T12:01:41;34.90;96.20
39881;DHT22;25554;44.954;10.068;2023-07-09T12:04:13;35.00;95.80
39881;DHT22;25554;44.954;10.068;2023-07-09T12:06:40;35.00;96.00
39881;DHT22;25554;44.954;10.068;2023-07-09T12:09:51;35.10;95.80
39881;DHT22;25554;44.954;10.068;2023-07-09T12:11:58;35.00;95.80
39881;DHT22;25554;44.954;10.068;2023-07-09T12:14:24;35.00;95.70
39881;DHT22;25554;44.954;10.068;2023-07-09T12:17:07;35.00;96.40
39881;DHT22;25554;44.954;10.068;2023-07-09T12:19:34;35.00;96.30
39881;DHT22;25554;44.954;10.068;2023-07-09T12:22:09;35.20;96.10
39881;DHT22;25554;44.954;10.068;2023-07-09T12:24:38;35.30;95.40
39881;DHT22;25554;44.954;10.068;2023-07-09T12:27:21;35.10;95.60
39881;DHT22;25554;44.954;10.068;2023-07-09T12:29:51;35.20;95.10
39881;DHT22;25554;44.954;10.068;2023-07-09T12:32:17;35.30;95.00
39881;DHT22;25554;44.954;10.068;2023-07-09T12:34:50;35.30;95.20
39881;DHT22;25554;44.954;10.068;2023-07-09T12:37:19;35.50;95.00
39881;DHT22;25554;44.954;10.068;2023-07-09T12:40:00;35.30;95.10
39881;DHT22;25554;44.954;10.068;2023-07-09T12:42:37;35.00;95.20
39881;DHT22;25554;44.954;10.068;2023-07-09T12:45:19;34.90;95.60
39881;DHT22;25554;44.954;10.068;2023-07-09T12:47:47;34.90;95.50
39881;DHT22;25554;44.954;10.068;2023-07-09T12:50:34;35.00;95.70
39881;DHT22;25554;44.954;10.068;2023-07-09T12:53:42;35.00;95.70
39881;DHT22;25554;44.954;10.068;2023-07-09T12:56:51;35.10;95.80
39881;DHT22;25554;44.954;10.068;2023-07-09T13:02:52;35.20;95.80
39881;DHT22;25554;44.954;10.068;2023-07-09T13:06:30;35.30;95.80
39881;DHT22;25554;44.954;10.068;2023-07-09T13:09:20;35.40;95.60
39881;DHT22;25554;44.954;10.068;2023-07-09T13:11:51;35.40;95.60
39881;DHT22;25554;44.954;10.068;2023-07-09T13:14:21;35.40;95.60
39881;DHT22;25554;44.954;10.068;2023-07-09T13:16:50;35.60;95.60
39881;DHT22;25554;44.954;10.068;2023-07-09T13:19:20;35.70;95.50
39881;DHT22;25554;44.954;10.068;2023-07-09T13:21:47;35.80;95.20
39881;DHT22;25554;44.954;10.068;2023-07-09T13:24:22;35.80;95.40
39881;DHT22;25554;44.954;10.068;2023-07-09T13:27:00;35.80;95.60
39881;DHT22;25554;44.954;10.068;2023-07-09T13:29:30;35.80;95.10
39881;DHT22;25554;44.954;10.068;2023-07-09T13:32:00;35.60;95.30
39881;DHT22;25554;44.954;10.068;2023-07-09T13:34:30;35.60;95.70
39881;DHT22;25554;44.954;10.068;2023-07-09T13:37:00;35.60;95.70
39881;DHT22;25554;44.954;10.068;2023-07-09T13:39:30;35.70;95.50
39881;DHT22;25554;44.954;10.068;2023-07-09T13:42:02;35.80;95.30
39881;DHT22;25554;44.954;10.068;2023-07-09T13:44:30;35.80;95.20
39881;DHT22;25554;44.954;10.068;2023-07-09T13:46:59;35.80;95.10
39881;DHT22;25554;44.954;10.068;2023-07-09T13:49:26;35.70;95.10
39881;DHT22;25554;44.954;10.068;2023-07-09T13:51:56;35.80;95.10
39881;DHT22;25554;44.954;10.068;2023-07-09T13:54:31;35.80;95.20
39881;DHT22;25554;44.954;10.068;2023-07-09T13:57:02;35.70;95.60
39881;DHT22;25554;44.954;10.068;2023-07-09T13:59:29;35.70;95.60
39881;DHT22;25554;44.954;10.068;2023-07-09T14:01:57;35.80;95.20
39881;DHT22;25554;44.954;10.068;2023-07-09T14:04:25;35.90;95.20
39881;DHT22;25554;44.954;10.068;2023-07-09T14:06:52;36.10;95.20
39881;DHT22;25554;44.954;10.068;2023-07-09T14:09:18;36.20;95.00
39881;DHT22;25554;44.954;10.068;2023-07-09T14:11:50;36.10;95.50
39881;DHT22;25554;44.954;10.068;2023-07-09T14:14:30;36.00;94.90
39881;DHT22;25554;44.954;10.068;2023-07-09T14:16:58;36.00;95.00
39881;DHT22;25554;44.954;10.068;2023-07-09T14:19:26;36.00;94.80
39881;DHT22;25554;44.954;10.068;2023-07-09T14:21:53;36.00;94.70
39881;DHT22;25554;44.954;10.068;2023-07-09T14:24:25;36.00;94.60
39881;DHT22;25554;44.954;10.068;2023-07-09T14:26:53;36.00;94.70
39881;DHT22;25554;44.954;10.068;2023-07-09T14:29:20;36.20;94.60
39881;DHT22;25554;44.954;10.068;2023-07-09T14:31:47;36.30;94.60
39881;DHT22;25554;44.954;10.068;2023-07-09T14:34:21;36.40;94.70
39881;DHT22;25554;44.954;10.068;2023-07-09T14:36:49;36.50;94.70
39881;DHT22;25554;44.954;10.068;2023-07-09T14:39:16;36.50;94.60
39881;DHT22;25554;44.954;10.068;2023-07-09T14:41:42;36.60;95.00
39881;DHT22;25554;44.954;10.068;2023-07-09T14:44:30;36.70;94.60
39881;DHT22;25554;44.954;10.068;2023-07-09T14:46:58;36.50;94.50
39881;DHT22;25554;44.954;10.068;2023-07-09T14:57:44;37.00;95.10
39881;DHT22;25554;44.954;10.068;2023-07-09T15:04:46;36.50;94.70
39881;DHT22;25554;44.954;10.068;2023-07-09T15:08:20;36.70;94.20
39881;DHT22;25554;44.954;10.068;2023-07-09T15:15:29;37.30;94.20
39881;DHT22;25554;44.954;10.068;2023-07-09T15:17:59;37.00;94.10
39881;DHT22;25554;44.954;10.068;2023-07-09T15:20:30;36.70;94.10
39881;DHT22;25554;44.954;10.068;2023-07-09T15:22:58;36.40;94.70
39881;DHT22;25554;44.954;10.068;2023-07-09T15:25:28;36.60;94.40
39881;DHT22;25554;44.954;10.068;2023-07-09T15:27:55;36.60;94.60
39881;DHT22;25554;44.954;10.068;2023-07-09T15:30:27;36.60;94.30
39881;DHT22;25554;44.954;10.068;2023-07-09T15:32:59;36.60;94.20
39881;DHT22;25554;44.954;10.068;2023-07-09T15:35:31;36.60;94.30
39881;DHT22;25554;44.954;10.068;2023-07-09T15:37:58;36.70;94.00
39881;DHT22;25554;44.954;10.068;2023-07-09T15:40:26;36.80;93.90
39881;DHT22;25554;44.954;10.068;2023-07-09T15:43:00;36.70;93.90
39881;DHT22;25554;44.954;10.068;2023-07-09T15:45:28;36.90;94.00
39881;DHT22;25554;44.954;10.068;2023-07-09T15:47:58;37.00;93.70
39881;DHT22;25554;44.954;10.068;2023-07-09T15:50:28;36.80;93.90
39881;DHT22;25554;44.954;10.068;2023-07-09T15:52:54;36.80;94.00
39881;DHT22;25554;44.954;10.068;2023-07-09T15:55:23;36.60;94.10
39881;DHT22;25554;44.954;10.068;2023-07-09T15:57:52;36.60;94.20
39881;DHT22;25554;44.954;10.068;2023-07-09T16:00:27;36.60;94.00
39881;DHT22;25554;44.954;10.068;2023-07-09T16:02:54;36.70;93.60
39881;DHT22;25554;44.954;10.068;2023-07-09T16:05:27;36.50;93.50
39881;DHT22;25554;44.954;10.068;2023-07-09T16:07:55;36.40;93.40
39881;DHT22;25554;44.954;10.068;2023-07-09T16:10:23;36.20;94.00
39881;DHT22;25554;44.954;10.068;2023-07-09T16:12:51;36.20;94.40
39881;DHT22;25554;44.954;10.068;2023-07-09T16:15:20;36.10;94.30
39881;DHT22;25554;44.954;10.068;2023-07-09T16:17:47;36.10;94.00
39881;DHT22;25554;44.954;10.068;2023-07-09T16:20:16;36.20;93.90
39881;DHT22;25554;44.954;10.068;2023-07-09T16:22:45;36.20;94.10
39881;DHT22;25554;44.954;10.068;2023-07-09T16:25:42;36.20;94.30
39881;DHT22;25554;44.954;10.068;2023-07-09T16:28:15;36.10;94.70
39881;DHT22;25554;44.954;10.068;2023-07-09T16:30:44;36.10;94.40
39881;DHT22;25554;44.954;10.068;2023-07-09T16:33:12;36.10;94.30
39881;DHT22;25554;44.954;10.068;2023-07-09T16:35:39;36.10;93.90
39881;DHT22;25554;44.954;10.068;2023-07-09T16:38:10;36.10;93.80
39881;DHT22;25554;44.954;10.068;2023-07-09T16:40:41;36.00;94.10
39881;DHT22;25554;44.954;10.068;2023-07-09T16:43:17;35.90;93.90
39881;DHT22;25554;44.954;10.068;2023-07-09T16:45:54;35.80;93.90
39881;DHT22;25554;44.954;10.068;2023-07-09T16:48:25;35.70;93.80
39881;DHT22;25554;44.954;10.068;2023-07-09T16:50:53;35.60;94.00
39881;DHT22;25554;44.954;10.068;2023-07-09T16:57:34;35.70;94.30
39881;DHT22;25554;44.954;10.068;2023-07-09T17:04:18;35.50;94.10
39881;DHT22;25554;44.954;10.068;2023-07-09T17:07:21;35.20;94.40
39881;DHT22;25554;44.954;10.068;2023-07-09T17:14:40;35.30;94.30
39881;DHT22;25554;44.954;10.068;2023-07-09T17:17:19;35.10;94.80
39881;DHT22;25554;44.954;10.068;2023-07-09T17:19:54;35.00;95.00
39881;DHT22;25554;44.954;10.068;2023-07-09T17:22:27;34.90;95.00
39881;DHT22;25554;44.954;10.068;2023-07-09T17:24:55;34.90;95.00
39881;DHT22;25554;44.954;10.068;2023-07-09T17:27:21;34.90;95.10
39881;DHT22;25554;44.954;10.068;2023-07-09T17:29:47;34.80;95.20
39881;DHT22;25554;44.954;10.068;2023-07-09T17:32:15;34.80;95.20
39881;DHT22;25554;44.954;10.068;2023-07-09T17:34:44;34.70;94.90
39881;DHT22;25554;44.954;10.068;2023-07-09T17:37:15;34.70;94.80
39881;DHT22;25554;44.954;10.068;2023-07-09T17:39:42;34.50;94.90
39881;DHT22;25554;44.954;10.068;2023-07-09T17:42:13;34.50;95.30
39881;DHT22;25554;44.954;10.068;2023-07-09T17:44:42;34.30;95.50
39881;DHT22;25554;44.954;10.068;2023-07-09T17:47:16;34.20;95.90
39881;DHT22;25554;44.954;10.068;2023-07-09T17:49:43;34.10;96.00
39881;DHT22;25554;44.954;10.068;2023-07-09T17:52:18;33.90;96.30
39881;DHT22;25554;44.954;10.068;2023-07-09T17:54:45;33.80;96.60
39881;DHT22;25554;44.954;10.068;2023-07-09T17:57:20;33.70;96.60
39881;DHT22;25554;44.954;10.068;2023-07-09T17:59:49;33.50;96.50